Terminal Aerodrome Forecast
Issued by NWS

Home | Current Version | Previous Version | Text Only | Print | Product List | Glossary On
Versions: 1 2 3 4 5 6 7 8 9 10 11 12 13 14
000
FTUS43 KAPX 011146
TAFTVC
TAF
KTVC 011146Z 0112/0212 34013G20KT P6SM OVC012
     FM011300 35012G22KT P6SM BKN025
     FM011500 35013G21KT P6SM BKN035
     FM011700 35013G20KT P6SM SCT040
     FM012300 32009KT P6SM FEW035
     FM020200 27004KT P6SM SKC=

USA.gov is the U.S. government's official web portal to all federal, state and local government web resources and services.